ADDS METAR Data INFO
IDs: Format: Raw Decoded Include TAF

Data at: 1513 UTC 23 Oct 2017

K0CO 231454Z AUTO 31046G57KT 7SM BKN013 BKN021 BKN030 M04/M10 A3050 RMK AO2
K0CO 231430Z AUTO 32040G51KT 10SM BKN013 OVC019 M04/M10 A3052 RMK AO2
K0CO 231412Z AUTO 31037G47KT 7SM BKN013 OVC021 M04/M10 A3053 RMK AO2
K0CO 231353Z AUTO 32040G48KT 7SM BKN013 OVC019 M04/M10 A3051 RMK AO2
K0CO 231329Z AUTO 30040G54KT 10SM BKN015 OVC023 M03/M09 A3049 RMK AO2
K0CO 231312Z AUTO 31044G55KT 10SM SCT015 BKN022 OVC028 M03/M09 A3049 RMK AO2
K0CO 231253Z AUTO 31051G63KT 10SM SCT015 BKN022 BKN027 M03/M09 A3044 RMK AO2
K0CO 231230Z AUTO 31049G60KT 10SM SCT014 BKN020 OVC026 M03/M08 A3044 RMK AO2
K0CO 231212Z AUTO 31047G53KT 10SM SCT012 BKN019 OVC030 M03/M08 A3046 RMK AO2
K0CO 231148Z AUTO 30046G51KT 10SM BKN010 BKN019 OVC024 M03/M09 A3047 RMK AO2
K0CO 231130Z AUTO 32041G57KT 10SM OVC010 M03/M09 A3046 RMK AO2
K0CO 231112Z AUTO 31041G52KT 10SM OVC010 M03/M08 A3046 RMK AO2
K0CO 231053Z AUTO 31046G59KT 10SM BKN012 OVC022 M03/M08 A3047 RMK AO2
K0CO 231030Z AUTO 31044G58KT 10SM OVC012 M03/M08 A3048 RMK AO2
K0CO 231012Z AUTO 31042G50KT 10SM OVC014 M03/M08 A3049 RMK AO2
K0CO 230948Z AUTO 30039G50KT 10SM OVC012 M03/M08 A3049 RMK AO2
K0CO 230930Z AUTO 31034G52KT 10SM OVC010 M03/M08 A3051 RMK AO2
K0CO 230912Z AUTO 31034G52KT 10SM OVC012 M03/M08 A3052 RMK AO2
K0CO 230854Z AUTO 31030G49KT 10SM OVC012 M03/M08 A3054 RMK AO2
K0CO 230830Z AUTO 30039G48KT 10SM OVC014 M03/M08 A3052 RMK AO2
K0CO 230812Z AUTO 31034G49KT 10SM OVC016 M02/M08 A3053 RMK AO2
K0CO 230754Z AUTO 31044G56KT 10SM OVC020 M02/M08 A3051 RMK AO2
K0CO 230730Z AUTO 31034G54KT 10SM BKN023 M02/M08 A3050 RMK AO2
K0CO 230712Z AUTO 31041G54KT 10SM SCT021 M02/M08 A3050 RMK AO2
K0CO 230654Z AUTO 30040G59KT 10SM SCT020 M02/M08 A3048 RMK AO2
K0CO 230630Z AUTO 31043G52KT 10SM BKN022 M02/M08 A3044 RMK AO2
K0CO 230612Z AUTO 31044G55KT 10SM OVC022 M02/M07 A3045 RMK AO2
K0CO 230554Z AUTO 32038G62KT 10SM OVC022 M02/M07 A3048 RMK AO2
K0CO 230530Z AUTO 31038G50KT 10SM OVC022 M02/M07 A3049 RMK AO2
K0CO 230512Z AUTO 31038G48KT 10SM BKN024 M02/M07 A3049 RMK AO2
K0CO 230453Z AUTO 32036G49KT 10SM SCT024 BKN029 M02/M07 A3049 RMK AO2
K0CO 230430Z AUTO 32034G43KT 10SM BKN024 BKN029 M01/M07 A3050 RMK AO2
K0CO 230412Z AUTO 30030G47KT 10SM BKN024 M01/M07 A3052 RMK AO2
K0CO 230354Z AUTO 31032G41KT 10SM BKN028 M01/M07 A3051 RMK AO2
K0CO 230330Z AUTO 30029G45KT 10SM OVC030 M01/M07 A3052 RMK AO2
K0CO 230312Z AUTO 30031G40KT 10SM OVC032 M01/M07 A3052 RMK AO2
K0CO 230254Z AUTO 32031G47KT 10SM OVC032 M01/M06 A3051 RMK AO2
K0CO 230230Z AUTO 31030G43KT 10SM SCT028 SCT034 M01/M06 A3052 RMK AO2
K0CO 230212Z AUTO 30039G54KT 10SM SCT032 M01/M06 A3050 RMK AO2
K0CO 230154Z AUTO 30035G50KT 10SM SCT032 M01/M06 A3051 RMK AO2
K0CO 230130Z AUTO 30033G44KT 10SM SCT032 SCT037 M01/M06 A3051 RMK AO2
K0CO 230112Z AUTO 31033G50KT 10SM SCT034 M01/M06 A3051 RMK AO2
K0CO 230053Z AUTO 30040G53KT 10SM CLR M01/M06 A3049 RMK AO2
K0CO 230029Z AUTO 30037G47KT 10SM CLR M01/M06 A3048 RMK AO2
K0CO 230012Z AUTO 29039G52KT 10SM CLR M01/M06 A3046 RMK AO2
K0CO 222354Z AUTO 30038G50KT 10SM CLR M01/M06 A3047 RMK AO2
K0CO 222330Z AUTO 29041G54KT 10SM CLR 00/M06 A3044 RMK AO2
K0CO 222312Z AUTO 30043G58KT 10SM CLR 00/M06 A3043 RMK AO2
K0CO 222254Z AUTO 30039G58KT 10SM CLR 00/M06 A3044 RMK AO2
K0CO 222230Z AUTO 30044G54KT 10SM CLR 00/M06 A3042 RMK AO2
K0CO 222212Z AUTO 31041G53KT 10SM CLR 00/M06 A3045 RMK AO2
K0CO 222154Z AUTO 29039G59KT 10SM CLR 00/M06 A3045 RMK AO2
K0CO 222130Z AUTO 31043G53KT 10SM CLR M01/M06 A3042 RMK AO2
K0CO 222112Z AUTO 31036G44KT 10SM CLR M01/M06 A3046 RMK AO2
K0CO 222054Z AUTO 30032G53KT 10SM CLR M01/M06 A3047 RMK AO2
K0CO 222030Z AUTO 31032G39KT 10SM CLR M03/M08 A3046 RMK AO2
K0CO 222012Z AUTO 32033G43KT 10SM CLR M03/M08 A3045 RMK AO2
K0CO 221953Z AUTO 32037G45KT 10SM CLR M03/M08 A3043 RMK AO2
K0CO 221929Z AUTO 33039G48KT 10SM CLR M03/M08 A3045 RMK AO2
K0CO 221911Z AUTO 32040G49KT 10SM CLR M03/M08 A3044 RMK AO2
K0CO 221853Z AUTO 32038G49KT 10SM CLR M03/M09 A3043 RMK AO2
K0CO 221830Z AUTO 32039G45KT 10SM CLR M05/M10 A3041 RMK AO2
K0CO 221812Z AUTO 32037G45KT 10SM SCT018 M05/M10 A3043 RMK AO2
K0CO 221748Z AUTO 32031G44KT 10SM SCT020 SCT025 M06/M12 A3044 RMK AO2
K0CO 221730Z AUTO 32032G40KT 10SM CLR M06/M12 A3043 RMK AO2
K0CO 221712Z AUTO 32034G43KT 10SM CLR M07/M12 A3041 RMK AO2
K0CO 221648Z AUTO 32033G44KT 10SM SCT003 SCT008 BKN014 M08/M13 A3040 RMK AO2
K0CO 221630Z AUTO 33030G42KT 10SM SCT003 OVC008 M08/M13 A3041 RMK AO2
K0CO 221612Z AUTO 32032G46KT 10SM BKN003 OVC008 M08/M14 A3039 RMK AO2
K0CO 221553Z AUTO 33032G43KT 1 1/2SM HZ OVC001 M08/M14 A3038 RMK AO2 VIS 1V5
K0CO 221529Z AUTO 31040G55KT M1/4SM HZ OVC001 M07/M12 A3036 RMK AO2
K0CO 221512Z AUTO 31042G54KT M1/4SM HZ OVC001 M07/M13 A3035 RMK AO2
K0CO 221454Z AUTO 33035G45KT M1/4SM HZ OVC001 M08/M14 A3035 RMK AO2
K0CO 221430Z AUTO 33035G47KT 10SM OVC001 M08/M14 A3035 RMK AO2
K0CO 221412Z AUTO 32045G56KT 1/4SM HZ OVC001 M08/M13 A3029 RMK AO2 VIS M1/4V5
K0CO 221354Z AUTO 32038G48KT 1/4SM HZ OVC001 M08/M13 A3031 RMK AO2
K0CO 221330Z AUTO 32042G52KT M1/4SM HZ OVC001 M08/M13 A3030 RMK AO2
K0CO 221312Z AUTO 32042G52KT 3/4SM HZ OVC001 M09/M15 A3029 RMK AO2
K0CO 221254Z AUTO 32036G45KT 10SM OVC004 M10/M15 A3029 RMK AO2
K0CO 221230Z AUTO 34034G40KT 10SM OVC008 M11/M16 A3030 RMK AO2
K0CO 221212Z AUTO 34035G41KT 10SM BKN008 OVC011 M11/M17 A3029 RMK AO2
K0CO 221153Z AUTO 33031G38KT 10SM BKN011 M11/M16 A3030 RMK AO2
K0CO 221129Z AUTO 33030G42KT 10SM BKN009 BKN013 M10/M15 A3031 RMK AO2
K0CO 221112Z AUTO 32034G43KT 10SM BKN009 M10/M16 A3030 RMK AO2
K0CO 221053Z AUTO 32035G45KT 10SM BKN013 M11/M17 A3028 RMK AO2
K0CO 221029Z AUTO 33030G38KT 10SM BKN015 M12/M17 A3031 RMK AO2
K0CO 221011Z AUTO 32031G36KT 10SM SCT015 M12/M18 A3030 RMK AO2
K0CO 220953Z AUTO 32032G40KT 10SM CLR M10/M16 A3029 RMK AO2
K0CO 220930Z AUTO 32040G50KT 10SM CLR M09/M15 A3027 RMK AO2
K0CO 220912Z AUTO 32040G54KT 10SM CLR M09/M15 A3025 RMK AO2
K0CO 220850Z AUTO 31048G58KT 5SM HZ CLR M08/M14 A3023 RMK AO2
K0CO 220832Z AUTO 31046G56KT 7SM CLR M09/M15 A3021 RMK AO2
K0CO 220814Z AUTO 31044G54KT 5SM HZ CLR M09/M15 A3024 RMK AO2
K0CO 220754Z AUTO 31040G52KT 7SM CLR M10/M15 A3024 RMK AO2
K0CO 220730Z AUTO 32038G45KT 10SM CLR M10/M15 A3024 RMK AO2
K0CO 220712Z AUTO 32036G49KT 10SM CLR M10/M15 A3026 RMK AO2
K0CO 220654Z AUTO 31044G55KT 10SM CLR M10/M15 A3021 RMK AO2
K0CO 220630Z AUTO 31041G52KT 7SM CLR M10/M16 A3022 RMK AO2
K0CO 220612Z AUTO 31043G52KT 10SM CLR M10/M15 A3021 RMK AO2
K0CO 220554Z AUTO 31040G54KT 10SM CLR M10/M16 A3021 RMK AO2
K0CO 220530Z AUTO 31039G48KT 10SM CLR M11/M16 A3021 RMK AO2
K0CO 220512Z AUTO 31037G43KT 10SM CLR M11/M16 A3021 RMK AO2
K0CO 220454Z AUTO 31037G44KT 10SM CLR M11/M16 A3021 RMK AO2
K0CO 220430Z AUTO 31037G47KT 10SM CLR M10/M16 A3022 RMK AO2
K0CO 220412Z AUTO 31035G43KT 10SM CLR M11/M16 A3021 RMK AO2
K0CO 220354Z AUTO 31036G46KT 10SM CLR M10/M16 A3020 RMK AO2
K0CO 220330Z AUTO 31037G48KT 10SM CLR M11/M16 A3019 RMK AO2